Time;durP1;ratioP1;P1;durP2;ratioP2;P2;SDS_P1;SDS_P2;PMS_P1;PMS_P2;Temp;Humidity;BMP_temperature;BMP_pressure;BME280_temperature;BME280_humidity;BME280_pressure;Samples;Min_cycle;Max_cycle;Signal;HPM_P1;HPM_P2
2022/03/03 00:04:46;;;;;;;34.80;19.50;;;22.50;44.40;;;;;;220321;1264;22520;-55
2022/03/03 00:09:50;;;;;;;36.30;22.50;;;22.40;44.40;;;;;;219900;1268;22467;-57
2022/03/03 00:14:53;;;;;;;34.40;21.70;;;22.40;44.40;;;;;;219967;1267;22530;-54
2022/03/03 00:19:57;;;;;;;35.50;21.90;;;22.40;44.30;;;;;;220271;1267;22535;-57
2022/03/03 00:25:00;;;;;;;34.30;19.60;;;22.60;43.90;;;;;;219873;1267;24387;-55
2022/03/03 00:30:05;;;;;;;33.30;19.50;;;22.90;43.20;;;;;;219872;1267;22601;-55
2022/03/03 00:35:10;;;;;;;30.10;20.20;;;23.30;42.60;;;;;;220283;1267;22597;-56
2022/03/03 00:40:14;;;;;;;32.60;19.20;;;23.60;42.00;;;;;;220353;1265;22587;-54
2022/03/03 00:45:22;;;;;;;32.30;19.10;;;23.80;41.60;;;;;;220165;1265;22551;-56
2022/03/03 00:50:28;;;;;;;32.10;20.00;;;23.90;41.20;;;;;;220727;1267;24422;-53
2022/03/03 00:55:32;;;;;;;29.00;18.90;;;23.90;41.10;;;;;;219941;1268;22566;-56
2022/03/03 01:00:37;;;;;;;32.90;19.80;;;24.10;40.90;;;;;;220441;1267;22547;-53
2022/03/03 01:05:41;;;;;;;31.20;19.50;;;24.20;40.70;;;;;;220181;1267;22550;-54
2022/03/03 01:10:48;;;;;;;29.70;18.80;;;24.20;40.50;;;;;;220242;1267;24228;-54
2022/03/03 01:15:53;;;;;;;29.00;18.50;;;24.20;40.50;;;;;;220579;1267;26635;-52
2022/03/03 01:20:57;;;;;;;36.90;21.60;;;24.20;40.50;;;;;;220382;1265;25553;-55
2022/03/03 01:26:01;;;;;;;30.10;19.80;;;24.30;40.50;;;;;;220453;1265;22547;-54
2022/03/03 01:31:05;;;;;;;31.90;20.70;;;24.20;40.40;;;;;;220214;1267;22557;-55
2022/03/03 01:36:10;;;;;;;31.70;20.00;;;24.30;40.50;;;;;;220464;1267;26698;-53
2022/03/03 01:41:14;;;;;;;28.10;19.20;;;24.30;40.90;;;;;;220290;1267;22537;-54
2022/03/03 01:46:18;;;;;;;29.90;19.70;;;24.20;40.50;;;;;;220519;1268;27039;-54
2022/03/03 01:51:22;;;;;;;30.90;20.30;;;24.20;40.60;;;;;;220188;1267;22637;-55
2022/03/03 01:56:26;;;;;;;34.10;22.60;;;24.30;40.80;;;;;;220189;1268;22551;-54
2022/03/03 02:01:31;;;;;;;36.80;21.80;;;24.30;40.50;;;;;;220299;1269;24390;-57
2022/03/03 02:06:37;;;;;;;33.90;20.20;;;24.30;40.50;;;;;;220370;1268;22526;-53
2022/03/03 02:11:43;;;;;;;32.20;20.70;;;24.30;40.50;;;;;;220225;1267;22536;-51
2022/03/03 02:16:49;;;;;;;32.90;21.40;;;24.40;40.50;;;;;;219956;1267;25582;-57
2022/03/03 02:21:53;;;;;;;29.30;20.10;;;24.30;40.30;;;;;;220245;1265;23903;-54
2022/03/03 02:27:02;;;;;;;32.00;21.60;;;24.30;40.80;;;;;;220177;1267;22611;-56
2022/03/03 02:32:07;;;;;;;33.60;22.00;;;24.10;40.80;;;;;;219968;1267;22588;-55
2022/03/03 02:37:11;;;;;;;33.80;22.30;;;24.00;40.90;;;;;;220201;1268;25300;-51
2022/03/03 02:42:15;;;;;;;34.00;22.20;;;23.80;41.10;;;;;;219964;1268;26800;-56
2022/03/03 02:47:18;;;;;;;33.90;22.30;;;23.60;41.40;;;;;;220269;1270;25339;-53
2022/03/03 02:52:22;;;;;;;33.10;22.20;;;23.50;42.30;;;;;;220042;1268;25578;-53
2022/03/03 03:02:52;;;;;;;34.50;21.20;;;23.10;42.20;;;;;;220089;1269;24435;-52
2022/03/03 03:07:56;;;;;;;33.70;23.30;;;23.00;42.50;;;;;;220086;1267;24325;-53
2022/03/03 03:13:03;;;;;;;33.00;22.90;;;22.90;42.70;;;;;;219884;1268;22767;-55
2022/03/03 03:18:13;;;;;;;34.00;22.70;;;22.80;42.80;;;;;;220320;1268;22536;-55
2022/03/03 03:23:22;;;;;;;34.10;22.80;;;22.60;43.00;;;;;;220315;1268;23156;-55
2022/03/03 03:28:26;;;;;;;33.50;22.00;;;22.50;43.30;;;;;;220158;1268;24071;-54
2022/03/03 03:33:30;;;;;;;33.60;23.00;;;22.50;43.50;;;;;;220062;1268;22652;-53
2022/03/03 03:38:34;;;;;;;35.90;23.70;;;22.40;43.60;;;;;;220079;1268;22525;-56
2022/03/03 03:43:38;;;;;;;31.40;20.80;;;22.40;43.60;;;;;;219892;1268;24347;-55
2022/03/03 03:48:41;;;;;;;32.20;20.70;;;22.60;44.20;;;;;;220186;1268;22792;-55
2022/03/03 03:53:45;;;;;;;33.40;21.90;;;23.10;42.80;;;;;;220071;1268;22535;-55
2022/03/03 03:58:50;;;;;;;30.70;20.40;;;23.50;41.60;;;;;;220107;1268;22566;-55
2022/03/03 04:03:54;;;;;;;30.70;19.80;;;23.70;41.30;;;;;;220149;1265;22858;-57
2022/03/03 04:08:57;;;;;;;29.80;20.40;;;23.80;41.40;;;;;;220126;1268;25245;-53
2022/03/03 04:14:01;;;;;;;34.10;22.30;;;23.90;40.80;;;;;;220197;1268;26480;-52
2022/03/03 04:19:05;;;;;;;35.50;20.80;;;24.00;40.30;;;;;;220237;1269;25196;-55
2022/03/03 04:24:10;;;;;;;31.70;22.00;;;24.10;40.10;;;;;;220381;1266;25423;-53
2022/03/03 04:29:13;;;;;;;31.70;21.30;;;24.10;39.90;;;;;;220295;1268;22564;-51
2022/03/03 04:34:19;;;;;;;31.80;20.80;;;24.10;40.00;;;;;;220124;1268;22598;-52
2022/03/03 04:39:31;;;;;;;30.50;20.70;;;24.20;40.10;;;;;;220134;1265;24519;-56
2022/03/03 04:44:42;;;;;;;33.40;21.20;;;24.10;40.10;;;;;;220237;1268;25487;-55
2022/03/03 04:49:46;;;;;;;31.70;20.30;;;24.20;40.10;;;;;;220229;1267;22833;-55
2022/03/03 04:54:49;;;;;;;30.70;20.10;;;24.20;40.50;;;;;;220156;1267;25571;-53
2022/03/03 04:59:53;;;;;;;30.80;20.90;;;24.20;40.60;;;;;;220364;1265;22674;-53
2022/03/03 05:04:57;;;;;;;31.50;21.20;;;24.20;40.40;;;;;;220102;1267;25536;-55
2022/03/03 05:10:03;;;;;;;34.30;21.00;;;24.20;40.90;;;;;;220112;1266;22639;-52
2022/03/03 05:15:08;;;;;;;30.70;19.90;;;24.20;40.50;;;;;;220163;1267;26848;-55
2022/03/03 05:20:13;;;;;;;32.70;20.30;;;24.30;40.80;;;;;;220292;1267;24472;-57
2022/03/03 05:25:16;;;;;;;27.90;20.00;;;24.20;40.40;;;;;;220227;1267;22539;-55
2022/03/03 05:30:20;;;;;;;30.10;21.00;;;24.30;40.40;;;;;;220063;1267;22588;-55
2022/03/03 05:35:24;;;;;;;28.60;20.70;;;24.30;40.40;;;;;;220039;1267;22588;-50
2022/03/03 05:40:27;;;;;;;30.20;19.50;;;24.30;40.50;;;;;;219903;1267;22524;-53
2022/03/03 05:45:34;;;;;;;30.40;20.20;;;24.20;40.60;;;;;;220076;1267;25367;-53
2022/03/03 05:50:44;;;;;;;29.40;19.80;;;24.00;41.00;;;;;;220378;1267;22576;-54
2022/03/03 05:55:53;;;;;;;30.20;20.50;;;23.90;41.00;;;;;;220523;1267;22565;-53
2022/03/03 06:01:01;;;;;;;30.60;19.60;;;23.70;41.00;;;;;;220274;1267;24306;-54
2022/03/03 06:06:14;;;;;;;32.40;20.50;;;23.60;41.30;;;;;;220325;1267;22522;-55
2022/03/03 06:11:20;;;;;;;30.10;20.10;;;23.50;41.50;;;;;;220188;1267;26791;-55
2022/03/03 06:16:25;;;;;;;31.80;21.00;;;23.30;41.80;;;;;;220206;1265;22544;-54
2022/03/03 06:21:29;;;;;;;31.40;20.90;;;23.20;42.00;;;;;;220379;1266;22582;-52
2022/03/03 06:26:32;;;;;;;31.10;20.90;;;23.10;42.30;;;;;;220054;1267;22584;-52
2022/03/03 06:31:36;;;;;;;30.40;20.70;;;23.00;42.70;;;;;;220037;1267;22613;-55
2022/03/03 06:36:40;;;;;;;29.70;21.10;;;22.90;42.60;;;;;;220023;1267;25343;-52
2022/03/03 06:41:44;;;;;;;30.70;20.60;;;22.80;43.10;;;;;;220239;1267;25339;-54
2022/03/03 06:46:48;;;;;;;29.70;20.10;;;22.70;43.00;;;;;;219909;1267;24677;-54
2022/03/03 06:51:58;;;;;;;30.00;19.80;;;22.60;43.30;;;;;;220318;1265;22550;-55
2022/03/03 06:57:02;;;;;;;27.20;19.60;;;22.70;43.30;;;;;;220517;1267;25249;-54
2022/03/03 07:02:06;;;;;;;29.80;20.10;;;22.70;43.50;;;;;;220237;1265;24228;-55
2022/03/03 07:07:11;;;;;;;35.40;19.80;;;22.70;43.30;;;;;;220134;1265;22522;-54
2022/03/03 07:12:18;;;;;;;31.00;19.70;;;22.60;44.00;;;;;;220742;1265;25311;-55
2022/03/03 07:17:47;;;;;;;34.80;20.70;;;22.50;44.20;;;;;;219965;1265;22524;-54
2022/03/03 07:23:02;;;;;;;33.00;19.60;;;22.50;44.40;;;;;;219715;1267;22536;-52
2022/03/03 07:28:08;;;;;;;30.60;18.80;;;22.40;44.50;;;;;;220305;1265;22541;-53
2022/03/03 07:33:18;;;;;;;31.50;18.10;;;22.40;45.10;;;;;;220616;1267;25241;-55
2022/03/03 07:38:26;;;;;;;31.90;19.30;;;22.40;45.10;;;;;;219993;1267;22547;-52
2022/03/03 07:43:30;;;;;;;27.70;19.50;;;22.40;45.50;;;;;;220444;1265;25486;-53
2022/03/03 07:48:34;;;;;;;34.00;19.10;;;22.40;45.60;;;;;;220189;1267;22671;-54
2022/03/03 07:53:38;;;;;;;31.50;19.20;;;22.30;45.80;;;;;;219920;1267;22565;-55
2022/03/03 07:58:47;;;;;;;29.60;18.50;;;22.30;45.90;;;;;;220434;1266;24275;-55
2022/03/03 08:03:51;;;;;;;36.30;18.90;;;22.30;46.20;;;;;;219611;1267;23038;-54
2022/03/03 08:08:59;;;;;;;29.30;17.80;;;22.60;45.80;;;;;;219684;1267;22549;-54
2022/03/03 08:14:03;;;;;;;35.30;19.40;;;22.90;45.00;;;;;;221339;1268;22630;-54
2022/03/03 08:19:10;;;;;;;30.50;18.40;;;23.20;44.50;;;;;;219509;1266;22691;-54
2022/03/03 08:24:15;;;;;;;31.50;19.70;;;23.40;43.80;;;;;;219703;1267;22529;-56
2022/03/03 08:29:18;;;;;;;29.90;18.40;;;23.50;43.20;;;;;;219892;1268;25191;-57
2022/03/03 08:34:43;;;;;;;35.60;19.00;;;23.50;43.30;;;;;;219456;1267;22548;-56
2022/03/03 08:39:46;;;;;;;29.60;18.50;;;23.40;43.40;;;;;;219093;1267;23452;-56
2022/03/03 08:44:58;;;;;;;32.70;18.10;;;23.30;43.30;;;;;;227876;1269;22347;-55
2022/03/03 08:50:08;;;;;;;32.40;18.80;;;23.20;43.50;;;;;;227946;1270;22368;-56
2022/03/03 08:55:30;;;;;;;28.50;19.00;;;23.20;43.60;;;;;;227736;1267;22147;-57
2022/03/03 09:00:34;;;;;;;32.20;19.70;;;23.10;43.60;;;;;;227896;1264;23168;-56
2022/03/03 09:05:38;;;;;;;29.90;18.30;;;23.10;43.60;;;;;;227826;1267;22378;-54
2022/03/03 09:10:41;;;;;;;28.90;18.50;;;23.00;43.70;;;;;;227777;1267;22519;-54
2022/03/03 09:15:45;;;;;;;28.80;17.70;;;23.00;43.60;;;;;;228000;1268;22924;-55
2022/03/03 09:20:49;;;;;;;31.40;19.50;;;23.00;43.70;;;;;;227906;1266;22568;-57
2022/03/03 09:25:53;;;;;;;30.10;18.40;;;23.10;43.50;;;;;;227912;1267;22597;-58
2022/03/03 09:31:02;;;;;;;29.90;19.90;;;23.10;43.50;;;;;;227534;1266;231351;-54
2022/03/03 09:36:10;;;;;;;26.70;18.20;;;23.00;43.60;;;;;;227913;1269;22373;-56
2022/03/03 09:41:14;;;;;;;27.80;17.20;;;23.10;43.40;;;;;;227951;1269;22536;-54
2022/03/03 09:46:21;;;;;;;30.80;18.20;;;23.20;43.30;;;;;;227858;1269;22319;-54
2022/03/03 09:51:25;;;;;;;25.50;16.60;;;23.20;43.20;;;;;;227781;1266;22272;-54
2022/03/03 09:56:31;;;;;;;25.10;17.10;;;23.20;43.10;;;;;;227828;1265;23267;-54
2022/03/03 10:01:35;;;;;;;28.30;17.00;;;23.30;42.90;;;;;;228132;1264;22462;-55
2022/03/03 10:06:42;;;;;;;26.20;17.10;;;23.40;42.70;;;;;;227743;1266;22294;-54
2022/03/03 10:11:49;;;;;;;23.90;16.30;;;23.40;42.40;;;;;;228114;1268;22369;-52
2022/03/03 10:16:52;;;;;;;27.40;17.00;;;23.50;42.30;;;;;;224257;1267;22538;-56
2022/03/03 10:22:16;;;;;;;26.00;15.90;;;23.60;42.10;;;;;;224243;1267;22590;-56
2022/03/03 10:27:20;;;;;;;25.80;16.30;;;23.70;42.00;;;;;;228033;1269;22208;-52
2022/03/03 10:32:25;;;;;;;24.00;16.00;;;23.80;41.80;;;;;;226078;1266;23405;-56
2022/03/03 10:37:32;;;;;;;24.20;16.90;;;23.80;42.20;;;;;;220274;1267;22720;-57
2022/03/03 10:42:42;;;;;;;25.90;15.00;;;23.90;41.60;;;;;;220247;1267;22999;-52
2022/03/03 10:47:59;;;;;;;23.50;15.60;;;24.00;41.30;;;;;;220209;1268;22534;-56
2022/03/03 10:53:09;;;;;;;22.20;15.20;;;24.20;41.80;;;;;;220175;1267;23525;-56
2022/03/03 10:58:12;;;;;;;26.00;15.60;;;24.30;40.90;;;;;;220368;1267;25314;-52
2022/03/03 11:03:16;;;;;;;23.50;16.10;;;24.40;41.30;;;;;;220300;1267;23110;-54
2022/03/03 11:08:20;;;;;;;21.60;15.30;;;24.50;40.30;;;;;;220331;1267;22638;-54
2022/03/03 11:13:25;;;;;;;21.20;15.10;;;24.50;40.40;;;;;;220248;1267;22697;-56
2022/03/03 11:18:37;;;;;;;22.50;14.20;;;24.50;40.50;;;;;;220304;1267;22523;-56
2022/03/03 11:23:58;;;;;;;22.90;16.10;;;24.40;40.50;;;;;;220392;1267;24332;-56
2022/03/03 11:29:11;;;;;;;22.40;16.00;;;24.40;40.80;;;;;;220241;1267;24282;-51
2022/03/03 11:34:22;;;;;;;27.00;15.30;;;24.30;41.00;;;;;;219466;1267;22685;-56
2022/03/03 11:39:38;;;;;;;25.20;15.40;;;24.30;41.10;;;;;;227868;1266;22986;-56
2022/03/03 11:44:53;;;;;;;21.40;14.30;;;24.20;41.10;;;;;;227661;1271;22374;-53
2022/03/03 11:50:01;;;;;;;22.60;15.30;;;24.30;41.10;;;;;;227777;1271;22274;-56
2022/03/03 11:55:28;;;;;;;22.00;15.00;;;24.30;41.10;;;;;;227663;1272;23221;-55
2022/03/03 12:00:38;;;;;;;21.80;14.50;;;24.30;41.20;;;;;;227981;1266;22415;-57
2022/03/03 12:05:46;;;;;;;20.30;14.70;;;24.30;41.10;;;;;;227857;1266;23692;-58
2022/03/03 12:11:16;;;;;;;19.40;14.30;;;24.30;41.20;;;;;;228000;1266;23110;-57
2022/03/03 12:16:30;;;;;;;21.30;15.10;;;24.20;41.20;;;;;;228129;1263;23397;-55
2022/03/03 12:21:36;;;;;;;23.70;14.90;;;24.20;41.10;;;;;;228045;1264;22925;-57
2022/03/03 12:26:57;;;;;;;21.40;14.60;;;24.20;41.30;;;;;;227885;1267;22469;-57
2022/03/03 12:32:37;;;;;;;20.70;14.10;;;24.10;41.20;;;;;;227882;1266;22351;-56
2022/03/03 12:37:45;;;;;;;19.40;14.00;;;24.10;41.30;;;;;;227757;1270;22364;-56
2022/03/03 12:42:52;;;;;;;19.30;13.40;;;24.10;41.20;;;;;;227995;1270;23237;-55
2022/03/03 12:47:59;;;;;;;17.80;12.80;;;24.10;41.40;;;;;;221611;1267;22692;-54
2022/03/03 12:53:08;;;;;;;18.80;13.90;;;24.00;41.20;;;;;;221381;1267;22608;-54
2022/03/03 12:58:15;;;;;;;22.10;13.10;;;24.00;41.30;;;;;;220452;1267;25739;-54
2022/03/03 13:03:23;;;;;;;18.00;12.80;;;23.90;41.50;;;;;;220451;1267;22541;-50
2022/03/03 13:08:34;;;;;;;17.20;12.30;;;23.90;41.50;;;;;;220515;1267;25388;-53
2022/03/03 13:13:46;;;;;;;18.30;11.70;;;23.90;41.30;;;;;;220603;1267;23191;-55
2022/03/03 13:18:51;;;;;;;17.50;12.00;;;23.90;41.50;;;;;;220202;1267;22532;-52
2022/03/03 13:23:57;;;;;;;20.70;12.00;;;23.90;41.40;;;;;;220712;1267;22546;-56
2022/03/03 13:29:13;;;;;;;18.40;12.30;;;23.90;41.30;;;;;;220462;1267;22552;-54
2022/03/03 13:34:25;;;;;;;17.60;11.70;;;23.80;41.30;;;;;;220333;1267;23386;-54
2022/03/03 13:39:34;;;;;;;16.90;10.60;;;23.80;41.40;;;;;;220337;1266;24205;-50
2022/03/03 13:44:40;;;;;;;20.40;10.60;;;23.80;41.50;;;;;;220325;1267;25186;-54
2022/03/03 13:49:50;;;;;;;17.50;10.60;;;23.80;41.70;;;;;;220046;1264;24327;-54
2022/03/03 13:55:02;;;;;;;21.40;10.70;;;23.80;42.00;;;;;;220205;1267;22592;-55
2022/03/03 14:00:19;;;;;;;19.00;10.40;;;23.70;41.70;;;;;;220347;1267;22529;-56
2022/03/03 14:05:38;;;;;;;14.80;10.20;;;23.70;41.70;;;;;;227952;1266;22179;-57
2022/03/03 14:10:50;;;;;;;14.90;10.00;;;23.70;41.70;;;;;;228028;1265;22461;-57
2022/03/03 14:15:59;;;;;;;15.50;10.50;;;23.60;41.30;;;;;;227987;1269;22432;-56
2022/03/03 14:21:02;;;;;;;14.90;9.80;;;23.60;41.10;;;;;;228027;1270;22987;-54
2022/03/03 14:26:10;;;;;;;16.20;10.00;;;23.60;41.50;;;;;;228004;1266;22477;-58
2022/03/03 14:31:14;;;;;;;14.40;9.60;;;23.60;42.30;;;;;;227940;1265;22372;-55
2022/03/03 14:36:19;;;;;;;16.20;10.10;;;23.50;41.70;;;;;;227993;1266;22465;-56
2022/03/03 14:41:23;;;;;;;12.90;9.40;;;23.50;42.10;;;;;;227980;1267;22415;-58
2022/03/03 14:46:33;;;;;;;15.20;9.80;;;23.50;42.00;;;;;;228029;1267;22382;-57
2022/03/03 14:51:39;;;;;;;13.00;9.40;;;23.40;42.00;;;;;;227774;1266;22380;-56
2022/03/03 14:56:45;;;;;;;14.20;9.70;;;23.40;41.90;;;;;;228001;1266;22883;-56
2022/03/03 15:01:50;;;;;;;14.90;9.40;;;23.30;42.30;;;;;;227952;1266;23132;-52
2022/03/03 15:06:54;;;;;;;17.60;10.00;;;23.30;42.20;;;;;;227918;1267;22390;-55
2022/03/03 15:11:57;;;;;;;17.00;9.80;;;23.30;42.60;;;;;;227977;1267;22396;-56
2022/03/03 15:17:01;;;;;;;16.90;10.30;;;23.20;42.50;;;;;;227922;1264;22437;-56
2022/03/03 15:22:11;;;;;;;17.30;10.80;;;23.20;42.30;;;;;;227986;1265;22358;-55
2022/03/03 15:27:17;;;;;;;17.60;10.80;;;23.10;42.30;;;;;;227932;1266;23356;-57
2022/03/03 15:32:26;;;;;;;17.90;10.70;;;23.00;42.40;;;;;;228096;1264;22318;-55
2022/03/03 15:37:31;;;;;;;24.20;12.30;;;23.00;42.50;;;;;;220776;1267;25487;-52
2022/03/03 15:42:36;;;;;;;22.00;10.90;;;23.00;42.60;;;;;;220280;1267;23021;-54
2022/03/03 15:47:48;;;;;;;20.90;11.30;;;22.90;42.20;;;;;;219912;1267;22529;-53
2022/03/03 15:52:52;;;;;;;17.40;10.90;;;22.90;42.20;;;;;;220463;1267;26503;-55
2022/03/03 15:57:58;;;;;;;17.80;10.70;;;22.80;42.10;;;;;;220219;1267;22531;-54
2022/03/03 16:03:06;;;;;;;23.60;11.90;;;22.70;42.30;;;;;;220221;1267;22528;-57
2022/03/03 16:08:15;;;;;;;17.30;11.00;;;22.70;42.30;;;;;;220497;1267;23788;-55
2022/03/03 16:13:19;;;;;;;17.30;11.60;;;22.70;42.60;;;;;;220193;1267;25518;-54
2022/03/03 16:18:25;;;;;;;19.50;11.60;;;22.50;42.40;;;;;;220271;1267;22564;-53
2022/03/03 16:23:32;;;;;;;19.40;12.30;;;22.60;43.40;;;;;;220652;1267;22638;-54
2022/03/03 16:28:59;;;;;;;16.90;11.20;;;22.50;44.10;;;;;;220351;1270;24264;-55
2022/03/03 16:34:03;;;;;;;20.20;12.20;;;22.50;44.10;;;;;;220349;1267;24313;-55
2022/03/03 16:39:13;;;;;;;19.50;11.80;;;22.40;43.70;;;;;;220303;1267;25212;-54
2022/03/03 16:44:27;;;;;;;18.50;12.00;;;22.40;43.70;;;;;;220240;1267;22541;-56
2022/03/03 16:49:37;;;;;;;18.70;11.40;;;22.30;43.20;;;;;;220065;1265;22545;-57
2022/03/03 16:54:42;;;;;;;20.70;11.70;;;22.40;43.20;;;;;;220251;1268;24312;-54
2022/03/03 16:59:50;;;;;;;20.50;12.00;;;22.70;44.00;;;;;;220226;1267;24427;-55
2022/03/03 17:04:54;;;;;;;21.00;11.90;;;23.10;44.00;;;;;;220463;1267;23053;-55
2022/03/03 17:09:59;;;;;;;18.90;11.70;;;23.30;43.30;;;;;;220137;1267;25252;-54
2022/03/03 17:15:05;;;;;;;20.90;11.10;;;23.50;42.80;;;;;;220082;1265;23522;-54
2022/03/03 17:20:10;;;;;;;22.10;12.30;;;23.60;42.50;;;;;;220190;1267;22639;-56
2022/03/03 17:25:22;;;;;;;17.90;12.10;;;23.80;42.20;;;;;;220082;1267;25400;-56
2022/03/03 17:30:27;;;;;;;19.10;11.40;;;23.80;41.70;;;;;;220074;1267;26271;-55
2022/03/03 17:35:40;;;;;;;20.60;11.60;;;23.80;41.30;;;;;;220304;1267;23037;-54
2022/03/03 17:40:53;;;;;;;18.50;11.60;;;23.90;40.90;;;;;;220728;1265;25692;-52
2022/03/03 17:46:12;;;;;;;16.90;11.00;;;23.90;40.80;;;;;;220364;1267;22695;-55
2022/03/03 17:51:21;;;;;;;16.80;12.40;;;24.00;40.10;;;;;;220171;1267;22528;-54
2022/03/03 17:56:29;;;;;;;17.70;11.40;;;24.10;39.90;;;;;;220207;1267;22756;-55
2022/03/03 18:01:41;;;;;;;19.70;11.80;;;24.10;39.70;;;;;;219981;1267;25214;-54
2022/03/03 18:06:45;;;;;;;16.80;11.10;;;24.10;40.70;;;;;;220573;1267;22585;-57
2022/03/03 18:11:50;;;;;;;21.50;13.10;;;23.90;41.30;;;;;;220045;1267;26759;-56
2022/03/03 18:16:57;;;;;;;22.70;11.50;;;23.80;41.30;;;;;;220367;1267;22771;-55
2022/03/03 18:22:01;;;;;;;19.50;12.50;;;23.60;41.50;;;;;;220212;1268;22769;-53
2022/03/03 18:27:08;;;;;;;18.30;13.00;;;23.30;41.60;;;;;;220662;1265;22767;-55
2022/03/03 18:32:13;;;;;;;23.00;13.20;;;23.20;41.90;;;;;;220159;1267;25328;-55
2022/03/03 18:37:18;;;;;;;21.60;12.60;;;23.00;42.00;;;;;;220140;1267;22658;-55
2022/03/03 18:42:24;;;;;;;19.30;11.90;;;22.90;42.60;;;;;;220092;1267;24224;-52
2022/03/03 18:47:29;;;;;;;17.20;11.60;;;22.80;42.80;;;;;;220419;1267;24505;-53
2022/03/03 18:52:34;;;;;;;19.80;12.70;;;22.70;42.70;;;;;;220229;1267;22564;-54
2022/03/03 18:57:43;;;;;;;19.50;12.40;;;22.70;42.90;;;;;;220397;1268;23931;-55
2022/03/03 19:02:48;;;;;;;23.70;12.60;;;22.80;46.30;;;;;;220577;1267;22586;-55
2022/03/03 19:07:52;;;;;;;18.30;12.30;;;22.80;46.20;;;;;;220583;1267;25371;-53
2022/03/03 19:12:58;;;;;;;21.00;13.00;;;22.70;46.20;;;;;;220352;1267;25541;-53
2022/03/03 19:18:05;;;;;;;25.20;13.50;;;22.50;46.70;;;;;;220118;1270;24230;-55
2022/03/03 19:23:09;;;;;;;20.40;14.20;;;22.50;47.40;;;;;;220241;1268;26736;-56
2022/03/03 19:28:14;;;;;;;21.90;13.90;;;22.40;46.00;;;;;;220493;1267;22544;-52
2022/03/03 19:38:48;;;;;;;24.10;13.40;;;22.50;46.00;;;;;;220426;1267;25720;-51
2022/03/03 19:43:59;;;;;;;22.20;13.60;;;22.30;46.20;;;;;;220372;1268;23036;-57
2022/03/03 19:49:14;;;;;;;23.10;13.30;;;22.20;46.50;;;;;;220159;1265;23490;-57
2022/03/03 19:54:50;;;;;;;23.20;13.90;;;22.20;47.00;;;;;;220157;1265;25158;-54
2022/03/03 19:59:55;;;;;;;21.40;14.00;;;22.30;46.50;;;;;;220319;1269;24195;-57
2022/03/03 20:05:06;;;;;;;19.50;12.70;;;22.10;46.90;;;;;;220326;1268;25257;-57
2022/03/03 20:15:35;;;;;;;18.50;13.20;;;21.90;46.50;;;;;;220329;1265;22645;-53
2022/03/03 20:20:44;;;;;;;20.10;13.40;;;22.00;46.70;;;;;;220267;1265;25537;-56
2022/03/03 20:25:53;;;;;;;20.80;13.10;;;22.20;45.30;;;;;;219870;1268;25309;-53
2022/03/03 20:31:04;;;;;;;23.70;13.50;;;22.20;45.50;;;;;;220408;1268;25648;-56
2022/03/03 20:36:08;;;;;;;26.30;13.20;;;22.20;45.20;;;;;;220203;1268;22644;-57
2022/03/03 20:41:16;;;;;;;22.80;12.80;;;22.50;45.30;;;;;;220418;1268;24308;-55
2022/03/03 20:46:29;;;;;;;21.50;12.40;;;22.90;46.70;;;;;;219745;1268;24736;-55
2022/03/03 20:51:38;;;;;;;18.80;11.60;;;23.20;46.10;;;;;;220142;1268;22532;-56
2022/03/03 20:56:42;;;;;;;19.60;11.60;;;23.30;45.40;;;;;;220257;1268;24460;-54
2022/03/03 21:01:49;;;;;;;17.10;11.30;;;23.40;45.10;;;;;;220341;1266;25376;-53
2022/03/03 21:07:05;;;;;;;20.60;11.30;;;23.50;44.50;;;;;;220033;1268;22811;-54
2022/03/03 21:12:34;;;;;;;16.70;10.40;;;23.50;43.90;;;;;;219982;1265;25486;-55
2022/03/03 21:17:49;;;;;;;16.20;11.10;;;23.60;43.30;;;;;;220169;1268;23207;-54
2022/03/03 21:23:13;;;;;;;21.20;12.20;;;23.80;43.60;;;;;;220226;1267;22606;-55
2022/03/03 21:28:20;;;;;;;19.90;11.30;;;23.80;43.40;;;;;;220301;1268;25651;-56
2022/03/03 21:33:24;;;;;;;15.70;10.80;;;23.90;43.30;;;;;;219622;1269;401250;-54
2022/03/03 21:38:35;;;;;;;20.50;10.80;;;23.90;43.00;;;;;;219838;1268;22607;-56
2022/03/03 21:43:41;;;;;;;15.00;9.70;;;23.90;42.90;;;;;;220272;1267;22512;-54
2022/03/03 21:49:05;;;;;;;19.70;10.70;;;23.80;42.90;;;;;;220362;1268;25486;-55
2022/03/03 21:54:20;;;;;;;17.10;10.40;;;23.80;42.80;;;;;;219924;1268;24270;-56
2022/03/03 21:59:41;;;;;;;14.80;10.20;;;23.90;42.60;;;;;;220039;1268;24306;-55
2022/03/03 22:04:50;;;;;;;22.20;10.10;;;23.90;42.50;;;;;;220374;1268;25550;-56
2022/03/03 22:09:55;;;;;;;18.70;9.70;;;24.00;43.00;;;;;;220016;1268;26838;-57
2022/03/03 22:15:00;;;;;;;15.60;9.80;;;24.20;44.10;;;;;;220169;1268;25192;-56
2022/03/03 22:20:04;;;;;;;16.60;9.80;;;24.30;44.20;;;;;;220224;1267;22597;-56
2022/03/03 22:25:13;;;;;;;15.30;9.30;;;24.30;44.40;;;;;;220160;1265;22561;-51
2022/03/03 22:30:17;;;;;;;14.20;9.20;;;24.30;44.60;;;;;;219985;1265;27687;-55
2022/03/03 22:35:26;;;;;;;14.70;9.70;;;24.20;45.40;;;;;;220522;1268;25356;-55
2022/03/03 22:40:31;;;;;;;15.80;9.90;;;24.10;45.00;;;;;;219948;1267;25604;-52
2022/03/03 22:45:47;;;;;;;14.90;9.70;;;23.90;45.10;;;;;;219851;1267;22743;-55
2022/03/03 22:56:20;;;;;;;15.60;9.60;;;23.60;45.60;;;;;;220363;1267;24380;-54
2022/03/03 23:01:26;;;;;;;12.80;8.40;;;23.50;45.90;;;;;;220577;1267;22674;-56
2022/03/03 23:06:30;;;;;;;15.50;9.10;;;23.40;46.10;;;;;;220228;1267;25937;-54
2022/03/03 23:11:35;;;;;;;15.40;8.50;;;23.20;46.30;;;;;;220272;1267;25519;-53
2022/03/03 23:16:39;;;;;;;12.20;8.80;;;23.00;46.60;;;;;;220172;1267;22573;-55
2022/03/03 23:21:45;;;;;;;13.70;9.10;;;22.90;46.80;;;;;;220536;1265;22534;-54
2022/03/03 23:26:51;;;;;;;14.50;8.50;;;22.80;47.00;;;;;;219999;1267;25196;-55
2022/03/03 23:31:55;;;;;;;12.60;8.20;;;22.70;47.20;;;;;;220528;1265;22574;-56
2022/03/03 23:36:59;;;;;;;13.90;8.60;;;22.60;47.30;;;;;;220129;1267;22640;-55
2022/03/03 23:42:04;;;;;;;13.60;8.60;;;22.60;47.40;;;;;;220078;1267;25219;-56
2022/03/03 23:47:10;;;;;;;13.80;8.00;;;22.50;47.40;;;;;;220297;1267;24219;-55
2022/03/03 23:52:24;;;;;;;14.40;9.20;;;22.50;47.40;;;;;;220425;1266;22987;-55
2022/03/03 23:57:36;;;;;;;13.20;8.50;;;22.50;47.50;;;;;;220333;1265;22538;-55
